createdAt,value
2022-10-26T00:01:10.528Z,15.93
2022-10-26T00:03:38.217Z,16.30
2022-10-26T00:06:09.695Z,16.44
2022-10-26T00:08:37.182Z,15.87
2022-10-26T00:11:04.562Z,15.49
2022-10-26T00:13:31.728Z,16.20
2022-10-26T00:18:30.370Z,15.27
2022-10-26T00:21:03.530Z,14.93
2022-10-26T00:23:30.906Z,14.87
2022-10-26T00:25:58.130Z,14.86
2022-10-26T00:28:25.075Z,14.85
2022-10-26T00:30:52.187Z,15.47
2022-10-26T00:33:19.232Z,15.32
2022-10-26T00:35:53.813Z,15.61
2022-10-26T00:38:20.998Z,15.55
2022-10-26T00:40:48.198Z,14.91
2022-10-26T00:43:17.479Z,14.87
2022-10-26T00:45:45.798Z,15.50
2022-10-26T00:48:22.485Z,15.85
2022-10-26T00:50:49.392Z,15.39
2022-10-26T00:53:16.398Z,15.66
2022-10-26T00:55:46.978Z,15.62
2022-10-26T00:58:14.124Z,16.06
2022-10-26T01:00:42.240Z,16.22
2022-10-26T01:03:10.812Z,16.30
2022-10-26T01:05:40.702Z,16.60
2022-10-26T01:08:09.076Z,16.77
2022-10-26T01:10:38.449Z,17.02
2022-10-26T01:13:05.844Z,16.25
2022-10-26T01:15:40.716Z,16.47
2022-10-26T01:18:16.178Z,17.02
2022-10-26T01:21:15.288Z,17.00
2022-10-26T01:24:00.498Z,17.00
2022-10-26T01:26:50.161Z,17.25
2022-10-26T01:29:38.478Z,17.71
2022-10-26T01:32:10.897Z,18.11
2022-10-26T01:35:11.052Z,17.94
2022-10-26T01:37:44.173Z,19.07
2022-10-26T01:40:23.569Z,19.50
2022-10-26T01:42:53.687Z,19.21
2022-10-26T01:45:20.616Z,19.08
2022-10-26T01:47:48.524Z,19.32
2022-10-26T01:50:15.756Z,19.10
2022-10-26T01:52:42.624Z,19.02
2022-10-26T01:55:40.915Z,19.08
2022-10-26T01:58:26.137Z,19.47
2022-10-26T02:01:07.168Z,19.89
2022-10-26T02:03:59.961Z,19.41
2022-10-26T02:06:40.265Z,19.80
2022-10-26T02:09:30.048Z,20.01
2022-10-26T02:11:57.415Z,19.47
2022-10-26T02:14:50.842Z,19.33
2022-10-26T02:17:29.120Z,18.57
2022-10-26T02:20:06.832Z,18.56
2022-10-26T02:22:40.656Z,18.33
2022-10-26T02:25:18.502Z,17.67
2022-10-26T02:27:48.342Z,16.02
2022-10-26T02:30:15.478Z,17.41
2022-10-26T02:32:46.558Z,17.74
2022-10-26T02:35:14.958Z,18.10
2022-10-26T02:37:42.558Z,18.64
2022-10-26T02:40:13.946Z,18.50
2022-10-26T02:42:42.538Z,18.97
2022-10-26T02:45:12.586Z,18.50
2022-10-26T02:47:39.518Z,17.99
2022-10-26T02:50:06.798Z,18.00
2022-10-26T02:52:50.191Z,18.25
2022-10-26T02:55:20.069Z,18.44
2022-10-26T02:57:51.452Z,18.25
2022-10-26T03:00:19.010Z,18.48
2022-10-26T03:02:52.491Z,18.71
2022-10-26T03:05:32.694Z,18.58
2022-10-26T03:08:00.584Z,18.64
2022-10-26T03:10:27.547Z,18.25
2022-10-26T03:12:54.681Z,18.70
2022-10-26T03:15:21.951Z,18.64
2022-10-26T03:17:49.085Z,18.49
2022-10-26T03:20:16.289Z,18.50
2022-10-26T03:22:43.141Z,18.56
2022-10-26T03:25:10.221Z,18.27
2022-10-26T03:27:38.089Z,17.92
2022-10-26T03:30:05.791Z,17.53
2022-10-26T03:32:32.663Z,17.35
2022-10-26T03:34:59.524Z,17.39
2022-10-26T03:37:26.507Z,17.36
2022-10-26T03:39:53.364Z,17.60
2022-10-26T03:42:20.258Z,17.54
2022-10-26T03:44:48.449Z,17.35
2022-10-26T03:47:15.321Z,17.44
2022-10-26T03:49:42.214Z,17.49
2022-10-26T03:52:09.108Z,17.57
2022-10-26T03:54:35.962Z,17.85
2022-10-26T03:57:02.865Z,18.15
2022-10-26T03:59:29.712Z,18.53
2022-10-26T04:01:57.898Z,18.03
2022-10-26T04:04:25.319Z,17.92
2022-10-26T04:06:52.234Z,17.98
2022-10-26T04:09:19.204Z,17.91
2022-10-26T04:11:46.065Z,17.74
2022-10-26T04:14:12.948Z,18.33
2022-10-26T04:16:39.796Z,18.16
2022-10-26T04:19:06.671Z,18.47
2022-10-26T04:21:33.633Z,17.49
2022-10-26T04:24:00.485Z,17.15
2022-10-26T04:26:27.583Z,16.66
2022-10-26T04:28:54.552Z,17.12
2022-10-26T04:31:21.620Z,16.81
2022-10-26T04:33:48.525Z,17.13
2022-10-26T04:36:15.414Z,17.29
2022-10-26T04:38:42.226Z,17.32
2022-10-26T04:41:09.052Z,17.28
2022-10-26T04:43:35.921Z,18.07
2022-10-26T04:46:02.806Z,17.64
2022-10-26T04:48:29.747Z,17.43
2022-10-26T04:50:59.910Z,17.59
2022-10-26T04:53:27.500Z,18.73
2022-10-26T04:55:58.775Z,18.30
2022-10-26T04:58:26.259Z,18.30
2022-10-26T05:00:53.217Z,18.27
2022-10-26T05:03:20.110Z,18.18
2022-10-26T05:05:48.034Z,17.93
2022-10-26T05:08:16.038Z,17.63
2022-10-26T05:10:43.161Z,16.54
2022-10-26T05:13:11.023Z,16.70
2022-10-26T05:15:37.904Z,17.01
2022-10-26T05:18:05.957Z,17.20
2022-10-26T05:20:34.603Z,18.02
2022-10-26T05:23:03.732Z,17.40
2022-10-26T05:25:32.604Z,17.32
2022-10-26T05:28:00.308Z,17.32
2022-10-26T05:30:27.978Z,17.55
2022-10-26T05:32:58.839Z,17.60
2022-10-26T05:35:26.375Z,18.27
2022-10-26T05:37:53.946Z,18.20
2022-10-26T05:40:21.210Z,18.18
2022-10-26T05:42:48.460Z,18.14
2022-10-26T05:45:15.616Z,18.01
2022-10-26T05:47:44.920Z,18.13
2022-10-26T05:50:12.369Z,18.35
2022-10-26T05:52:42.415Z,18.64
2022-10-26T05:55:10.894Z,18.38
2022-10-26T05:57:38.397Z,18.70
2022-10-26T06:00:10.626Z,19.33
2022-10-26T06:03:00.435Z,19.46
2022-10-26T06:05:29.076Z,20.10
2022-10-26T06:07:56.312Z,19.93
2022-10-26T06:10:23.533Z,19.40
2022-10-26T06:12:50.893Z,19.15
2022-10-26T06:15:22.042Z,19.39
2022-10-26T06:18:05.772Z,19.27
2022-10-26T06:20:55.385Z,19.13
2022-10-26T06:23:41.491Z,19.30
2022-10-26T06:26:33.146Z,19.07
2022-10-26T06:29:12.952Z,18.76
2022-10-26T06:31:39.866Z,19.43
2022-10-26T06:34:06.743Z,19.28
2022-10-26T06:36:33.673Z,18.20
2022-10-26T06:39:03.897Z,19.45
2022-10-26T06:41:33.092Z,19.83
2022-10-26T06:44:00.261Z,20.74
2022-10-26T06:46:37.947Z,21.37
2022-10-26T06:49:29.430Z,21.72
2022-10-26T06:52:03.399Z,21.94
2022-10-26T06:54:45.455Z,21.68
2022-10-26T06:57:13.538Z,20.78
2022-10-26T06:59:45.330Z,20.80
2022-10-26T07:02:12.384Z,20.66
2022-10-26T07:04:39.382Z,20.54
2022-10-26T07:07:06.244Z,20.69
2022-10-26T07:09:33.127Z,20.55
2022-10-26T07:12:00.123Z,20.72
2022-10-26T07:14:26.976Z,20.88
2022-10-26T07:16:54.625Z,20.66
2022-10-26T07:19:21.497Z,20.60
2022-10-26T07:21:48.432Z,20.53
2022-10-26T07:24:15.361Z,20.53
2022-10-26T07:26:42.261Z,20.41
2022-10-26T07:29:09.076Z,20.47
2022-10-26T07:31:35.960Z,20.27
2022-10-26T07:34:03.140Z,19.87
2022-10-26T07:36:30.322Z,19.70
2022-10-26T07:38:57.140Z,20.06
2022-10-26T07:41:23.982Z,20.06
2022-10-26T07:43:51.001Z,19.86
2022-10-26T07:46:18.897Z,19.69
2022-10-26T07:48:45.804Z,19.56
2022-10-26T07:51:12.876Z,18.88
2022-10-26T07:53:39.732Z,19.01
2022-10-26T07:56:07.295Z,19.51
2022-10-26T07:58:34.334Z,19.15
2022-10-26T08:01:11.937Z,19.92
2022-10-26T08:03:39.053Z,19.90
2022-10-26T08:06:06.347Z,20.00
2022-10-26T08:08:33.637Z,19.92
2022-10-26T08:11:00.513Z,20.08
2022-10-26T08:13:27.405Z,20.48
2022-10-26T08:16:01.707Z,21.17
2022-10-26T08:18:28.703Z,21.54
2022-10-26T08:21:01.831Z,22.19
2022-10-26T08:23:37.083Z,21.80
2022-10-26T08:26:04.353Z,22.08
2022-10-26T08:28:31.443Z,22.46
2022-10-26T08:30:58.597Z,22.51
2022-10-26T08:33:25.870Z,21.97
2022-10-26T08:36:11.759Z,22.49
2022-10-26T08:38:38.579Z,22.09
2022-10-26T08:41:09.474Z,22.14
2022-10-26T08:43:54.712Z,21.43
2022-10-26T08:46:29.172Z,20.94
2022-10-26T08:48:59.670Z,21.39
2022-10-26T08:51:35.579Z,21.37
2022-10-26T08:54:09.926Z,20.79
2022-10-26T08:56:51.003Z,20.56
2022-10-26T08:59:33.956Z,21.16
2022-10-26T09:02:02.891Z,21.15
2022-10-26T09:04:32.057Z,21.82
2022-10-26T09:07:19.341Z,21.70
2022-10-26T09:10:13.848Z,21.90
2022-10-26T09:13:24.056Z,21.96
2022-10-26T09:16:03.187Z,21.95
2022-10-26T09:18:39.252Z,22.47
2022-10-26T09:21:24.875Z,22.44
2022-10-26T09:23:54.834Z,22.35
2022-10-26T09:26:49.415Z,23.05
2022-10-26T09:29:16.249Z,23.04
2022-10-26T09:31:45.697Z,22.88
2022-10-26T09:34:28.354Z,22.35
2022-10-26T09:36:57.835Z,21.84
2022-10-26T09:39:36.421Z,21.29
2022-10-26T09:42:13.070Z,21.80
2022-10-26T09:44:55.996Z,22.35
2022-10-26T09:47:34.141Z,22.36
2022-10-26T09:50:36.764Z,22.24
2022-10-26T09:53:04.047Z,21.43
2022-10-26T09:55:51.477Z,21.75
2022-10-26T09:58:22.524Z,21.75
2022-10-26T10:00:49.431Z,22.34
2022-10-26T10:03:30.266Z,22.02
2022-10-26T10:06:16.312Z,21.66
2022-10-26T10:08:44.037Z,22.40
2022-10-26T10:11:14.807Z,22.79
2022-10-26T10:13:46.069Z,22.63
2022-10-26T10:16:27.569Z,22.22
2022-10-26T10:18:56.657Z,21.87
2022-10-26T10:21:50.190Z,22.08
2022-10-26T10:24:38.291Z,22.36
2022-10-26T10:27:17.422Z,22.01
2022-10-26T10:29:52.224Z,21.03
2022-10-26T10:32:21.879Z,21.01
2022-10-26T10:34:53.822Z,21.34
2022-10-26T10:37:25.046Z,20.89
2022-10-26T10:39:52.434Z,20.64
2022-10-26T10:42:22.603Z,20.76
2022-10-26T10:44:54.469Z,20.91
2022-10-26T10:47:35.678Z,21.06
2022-10-26T10:50:06.636Z,21.98
2022-10-26T10:52:35.438Z,22.10
2022-10-26T10:55:16.561Z,22.15
2022-10-26T10:58:03.242Z,22.11
2022-10-26T11:00:33.762Z,22.61
2022-10-26T11:03:27.822Z,23.05
2022-10-26T11:06:10.953Z,23.26
2022-10-26T11:09:11.132Z,23.65
2022-10-26T11:11:48.795Z,22.94
2022-10-26T11:14:28.462Z,22.97
2022-10-26T11:17:18.506Z,22.73
2022-10-26T11:19:48.170Z,22.89
2022-10-26T11:22:18.016Z,22.16
2022-10-26T11:25:16.241Z,22.20
2022-10-26T11:27:44.197Z,21.61
2022-10-26T11:30:16.924Z,21.45
2022-10-26T11:32:44.725Z,21.54
2022-10-26T11:35:17.877Z,21.38
2022-10-26T11:37:50.396Z,21.99
2022-10-26T11:40:53.779Z,21.46
2022-10-26T11:43:40.636Z,21.30
2022-10-26T11:46:16.706Z,21.10
2022-10-26T11:49:00.569Z,20.90
2022-10-26T11:51:30.565Z,20.64
2022-10-26T11:53:58.655Z,20.92
2022-10-26T11:56:36.187Z,21.31
2022-10-26T12:01:34.917Z,20.79
2022-10-26T12:04:03.751Z,21.20
2022-10-26T12:06:32.686Z,20.94
2022-10-26T12:09:09.359Z,19.91
2022-10-26T12:11:39.471Z,20.40
2022-10-26T12:14:24.864Z,20.62
2022-10-26T12:16:57.294Z,20.45
2022-10-26T12:19:45.973Z,21.09
2022-10-26T12:22:15.021Z,20.60
2022-10-26T12:25:15.374Z,20.88
2022-10-26T12:27:42.435Z,21.12
2022-10-26T12:30:12.155Z,21.70
2022-10-26T12:32:41.535Z,21.26
2022-10-26T12:35:33.689Z,21.99
2022-10-26T12:38:02.490Z,22.35
2022-10-26T12:40:35.047Z,21.92
2022-10-26T12:43:13.820Z,22.10
2022-10-26T12:45:42.718Z,21.92
2022-10-26T12:48:38.818Z,21.96
2022-10-26T12:51:40.019Z,21.55
2022-10-26T12:54:35.690Z,20.91
2022-10-26T12:57:24.265Z,21.70
2022-10-26T13:00:06.202Z,22.46
2022-10-26T13:03:05.170Z,22.92
2022-10-26T13:06:09.968Z,22.35
2022-10-26T13:08:46.308Z,21.75
2022-10-26T13:11:24.851Z,21.71
2022-10-26T13:13:56.720Z,22.17
2022-10-26T13:16:25.066Z,21.49
2022-10-26T13:18:52.014Z,21.97
2022-10-26T13:21:21.259Z,21.73
2022-10-26T13:24:04.349Z,21.63
2022-10-26T13:26:32.342Z,21.01
2022-10-26T13:29:04.311Z,21.62
2022-10-26T13:31:34.535Z,21.66
2022-10-26T13:34:04.665Z,21.83
2022-10-26T13:36:39.279Z,21.49
2022-10-26T13:39:31.558Z,21.66
2022-10-26T13:41:59.584Z,22.06
2022-10-26T13:44:46.258Z,22.40
2022-10-26T13:47:36.736Z,21.80
2022-10-26T13:50:10.799Z,22.29
2022-10-26T13:52:44.565Z,22.46
2022-10-26T13:55:17.433Z,22.92
2022-10-26T13:57:47.006Z,22.74
2022-10-26T14:00:20.692Z,22.31
2022-10-26T14:02:48.428Z,22.90
2022-10-26T14:05:17.927Z,22.58
2022-10-26T14:07:58.666Z,22.40
2022-10-26T14:10:37.607Z,22.17
2022-10-26T14:13:17.053Z,21.75
2022-10-26T14:15:45.329Z,21.85
2022-10-26T14:18:23.479Z,21.82
2022-10-26T14:20:56.170Z,21.67
2022-10-26T14:23:50.150Z,22.09
2022-10-26T14:26:26.194Z,22.11
2022-10-26T14:28:58.258Z,22.05
2022-10-26T14:31:30.965Z,21.90
2022-10-26T14:33:59.755Z,21.73
2022-10-26T14:36:33.971Z,21.33
2022-10-26T14:39:05.207Z,21.80
2022-10-26T14:41:32.911Z,21.91
2022-10-26T14:44:00.488Z,21.55
2022-10-26T14:46:29.357Z,21.84
2022-10-26T14:48:58.103Z,21.91
2022-10-26T14:51:35.244Z,21.69
2022-10-26T14:54:01.940Z,22.08
2022-10-26T14:56:36.757Z,22.66
2022-10-26T14:59:22.963Z,22.51
2022-10-26T15:02:16.819Z,23.13
2022-10-26T15:05:15.657Z,23.30
2022-10-26T15:07:44.747Z,23.14
2022-10-26T15:10:36.064Z,22.80
2022-10-26T15:13:33.367Z,22.98
2022-10-26T15:16:28.124Z,23.18
2022-10-26T15:18:59.031Z,23.16
2022-10-26T15:21:42.292Z,23.48
2022-10-26T15:24:27.589Z,23.13
2022-10-26T15:26:54.519Z,23.61
2022-10-26T15:29:39.512Z,23.33
2022-10-26T15:32:23.650Z,22.98
2022-10-26T15:35:07.222Z,23.32
2022-10-26T15:37:34.136Z,23.21
2022-10-26T15:40:01.251Z,23.28
2022-10-26T15:42:28.950Z,22.63
2022-10-26T15:44:59.731Z,22.88
2022-10-26T15:47:30.792Z,23.31
2022-10-26T15:49:57.634Z,23.70
2022-10-26T15:52:24.481Z,23.27
2022-10-26T15:54:52.400Z,23.43
2022-10-26T15:57:21.426Z,23.02
2022-10-26T15:59:48.523Z,21.88
2022-10-26T16:02:15.937Z,21.71
2022-10-26T16:04:42.900Z,22.41
2022-10-26T16:07:13.501Z,22.42
2022-10-26T16:09:41.273Z,23.13
2022-10-26T16:12:12.356Z,23.28
2022-10-26T16:15:00.580Z,23.25
2022-10-26T16:17:26.364Z,23.30
2022-10-26T16:19:53.233Z,23.38
2022-10-26T16:22:20.086Z,22.78
2022-10-26T16:24:47.964Z,22.79
2022-10-26T16:27:14.836Z,22.95
2022-10-26T16:29:41.664Z,23.19
2022-10-26T16:32:08.498Z,23.80
2022-10-26T16:34:35.327Z,23.35
2022-10-26T16:37:02.173Z,22.68
2022-10-26T16:39:29.015Z,22.47
2022-10-26T16:41:55.925Z,21.89
2022-10-26T16:44:22.773Z,22.49
2022-10-26T16:46:49.641Z,23.30
2022-10-26T16:49:16.548Z,23.70
2022-10-26T16:51:43.431Z,23.16
2022-10-26T16:54:10.279Z,23.17
2022-10-26T16:56:37.220Z,22.34
2022-10-26T16:59:04.146Z,21.94
2022-10-26T17:01:31.226Z,21.84
2022-10-26T17:03:58.225Z,21.48
2022-10-26T17:06:25.141Z,21.38
2022-10-26T17:08:51.968Z,22.16
2022-10-26T17:11:21.016Z,22.13
2022-10-26T17:13:48.382Z,22.50
2022-10-26T17:16:17.826Z,22.03
2022-10-26T17:18:45.181Z,21.67
2022-10-26T17:21:13.593Z,22.03
2022-10-26T17:23:40.487Z,21.74
2022-10-26T17:26:09.783Z,21.52
2022-10-26T17:28:37.269Z,21.96
2022-10-26T17:31:05.780Z,21.66
2022-10-26T17:33:36.239Z,22.59
2022-10-26T17:36:04.993Z,22.47
2022-10-26T17:38:33.300Z,22.52
2022-10-26T17:41:02.170Z,21.22
2022-10-26T17:43:33.261Z,21.03
2022-10-26T17:46:00.873Z,19.89
2022-10-26T17:48:28.744Z,20.11
2022-10-26T17:50:57.791Z,20.16
2022-10-26T17:53:24.745Z,20.84
2022-10-26T17:56:02.523Z,20.99
2022-10-26T17:58:29.626Z,21.56
2022-10-26T18:01:00.113Z,22.51
2022-10-26T18:03:26.963Z,22.26
2022-10-26T18:05:53.880Z,22.81
2022-10-26T18:08:21.757Z,22.62
2022-10-26T18:10:49.848Z,23.34
2022-10-26T18:13:17.361Z,23.09
2022-10-26T18:15:44.329Z,22.30
2022-10-26T18:18:11.591Z,21.85
2022-10-26T18:20:38.460Z,21.26
2022-10-26T18:23:05.424Z,21.31
2022-10-26T18:25:33.975Z,21.55
2022-10-26T18:28:00.904Z,21.51
2022-10-26T18:30:28.061Z,21.35
2022-10-26T18:32:54.955Z,21.31
2022-10-26T18:35:21.797Z,20.88
2022-10-26T18:37:49.101Z,20.84
2022-10-26T18:40:16.277Z,21.43
2022-10-26T18:42:43.129Z,21.80
2022-10-26T18:45:10.285Z,21.93
2022-10-26T18:47:37.127Z,21.87
2022-10-26T18:50:04.091Z,21.50
2022-10-26T18:52:30.969Z,21.01
2022-10-26T18:54:57.939Z,20.97
2022-10-26T18:57:27.189Z,20.80
2022-10-26T18:59:55.155Z,20.77
2022-10-26T19:02:23.177Z,20.99
2022-10-26T19:04:53.169Z,21.26
2022-10-26T19:07:20.373Z,21.19
2022-10-26T19:09:47.203Z,21.13
2022-10-26T19:12:14.047Z,21.21
2022-10-26T19:14:40.900Z,21.21
2022-10-26T19:17:07.831Z,21.34
2022-10-26T19:19:34.692Z,21.51
2022-10-26T19:22:01.639Z,21.54
2022-10-26T19:24:28.529Z,21.87
2022-10-26T19:26:56.777Z,22.00
2022-10-26T19:29:23.723Z,22.06
2022-10-26T19:31:53.596Z,21.72
2022-10-26T19:34:20.542Z,21.69
2022-10-26T19:36:47.780Z,21.81
2022-10-26T19:39:16.160Z,21.27
2022-10-26T19:41:43.679Z,21.58
2022-10-26T19:44:12.027Z,21.94
2022-10-26T19:46:39.780Z,22.50
2022-10-26T19:49:07.269Z,22.50
2022-10-26T19:51:34.135Z,22.20
2022-10-26T19:54:03.932Z,22.35
2022-10-26T19:56:32.538Z,21.78
2022-10-26T19:58:59.667Z,22.02
2022-10-26T20:01:26.589Z,22.14
2022-10-26T20:03:53.550Z,22.39
2022-10-26T20:06:20.463Z,22.58
2022-10-26T20:08:49.068Z,21.80
2022-10-26T20:11:17.657Z,21.74
2022-10-26T20:13:46.014Z,22.09
2022-10-26T20:16:13.463Z,21.46
2022-10-26T20:18:44.094Z,22.14
2022-10-26T20:21:14.901Z,21.91
2022-10-26T20:23:42.846Z,21.95
2022-10-26T20:26:11.853Z,21.73
2022-10-26T20:28:45.360Z,21.86
2022-10-26T20:31:12.703Z,21.98
2022-10-26T20:33:39.544Z,21.63
2022-10-26T20:36:06.734Z,21.72
2022-10-26T20:38:33.927Z,22.14
2022-10-26T20:41:03.697Z,22.00
2022-10-26T20:43:33.610Z,22.07
2022-10-26T20:46:00.802Z,22.29
2022-10-26T20:48:27.989Z,22.90
2022-10-26T20:51:04.078Z,22.45
2022-10-26T20:54:15.863Z,21.97
2022-10-26T20:56:42.905Z,21.69
2022-10-26T20:59:58.181Z,21.49
2022-10-26T21:02:25.051Z,21.78
2022-10-26T21:04:51.871Z,21.55
2022-10-26T21:07:18.721Z,21.18
2022-10-26T21:09:45.547Z,21.08
2022-10-26T21:12:12.450Z,21.04
2022-10-26T21:14:41.066Z,20.70
2022-10-26T21:17:08.429Z,20.95
2022-10-26T21:19:35.476Z,20.66
2022-10-26T21:22:02.557Z,20.41
2022-10-26T21:24:29.423Z,21.28
2022-10-26T21:26:56.349Z,21.51
2022-10-26T21:29:23.218Z,21.83
2022-10-26T21:31:50.087Z,21.48
2022-10-26T21:34:16.910Z,21.50
2022-10-26T21:36:43.810Z,21.74
2022-10-26T21:39:10.682Z,21.61
2022-10-26T21:41:37.936Z,21.18
2022-10-26T21:44:09.192Z,21.22
2022-10-26T21:46:38.430Z,20.98
2022-10-26T21:49:05.695Z,20.35
2022-10-26T21:51:32.602Z,20.24
2022-10-26T21:53:59.517Z,20.12
2022-10-26T21:56:26.340Z,19.94
2022-10-26T21:58:53.272Z,20.28
2022-10-26T22:01:21.942Z,20.62
2022-10-26T22:03:49.434Z,20.64
2022-10-26T22:08:50.245Z,19.35
2022-10-26T22:11:19.630Z,18.81
2022-10-26T22:13:47.231Z,18.10
2022-10-26T22:16:16.661Z,18.57
2022-10-26T22:18:45.093Z,18.94
2022-10-26T22:21:13.186Z,19.00
2022-10-26T22:23:41.541Z,18.88
2022-10-26T22:26:14.663Z,19.34
2022-10-26T22:28:43.153Z,18.71
2022-10-26T22:31:15.465Z,19.36
2022-10-26T22:33:42.794Z,19.48
2022-10-26T22:36:12.692Z,18.56
2022-10-26T22:38:39.832Z,18.06
2022-10-26T22:41:06.953Z,18.81
2022-10-26T22:43:34.033Z,19.76
2022-10-26T22:46:07.798Z,20.19
2022-10-26T22:48:35.454Z,20.74
2022-10-26T22:51:07.758Z,20.80
2022-10-26T22:53:34.580Z,21.71
2022-10-26T22:56:02.331Z,20.76
2022-10-26T22:58:29.238Z,20.81
2022-10-26T23:01:06.234Z,20.96
2022-10-26T23:03:33.160Z,20.23
2022-10-26T23:06:00.104Z,20.12
2022-10-26T23:08:27.430Z,20.15
2022-10-26T23:10:54.447Z,20.23
2022-10-26T23:13:21.339Z,20.96
2022-10-26T23:15:48.171Z,21.50
2022-10-26T23:18:15.060Z,20.45
2022-10-26T23:20:41.911Z,20.89
2022-10-26T23:23:08.777Z,20.39
2022-10-26T23:25:35.604Z,19.87
2022-10-26T23:28:02.456Z,19.64
2022-10-26T23:30:29.351Z,19.29
2022-10-26T23:32:56.573Z,19.37
2022-10-26T23:35:23.572Z,19.12
2022-10-26T23:37:50.403Z,19.27
2022-10-26T23:40:17.341Z,19.77
2022-10-26T23:42:44.214Z,19.73
2022-10-26T23:45:11.172Z,20.23
2022-10-26T23:47:38.043Z,19.99
2022-10-26T23:50:05.189Z,19.81
2022-10-26T23:52:32.028Z,20.00
2022-10-26T23:54:58.880Z,19.70
2022-10-26T23:57:25.794Z,19.14
2022-10-26T23:59:53.246Z,19.40
